Observations for BRISTOL LULSGATE, United Kingdom (EGGD)

EGGD 250320Z AUTO 28007KT 9999 SCT034 02/02 Q1013   
EGGD 250250Z AUTO 28006KT 9999 NCD 02/02 Q1013  
EGGD 250220Z AUTO 27006KT 9999 FEW029 02/02 Q1013   
EGGD 250150Z AUTO 27006KT 9999 -RA SCT026 BKN042 02/02 Q1013
EGGD 250120Z AUTO 26005KT 9999 FEW014 02/02 Q1013   
EGGD 250050Z AUTO 25004KT 9999 FEW015 SCT039 02/02 Q1013
EGGD 250020Z AUTO 24004KT 9999 -RA SCT020 BKN032 02/02 Q1013
EGGD 242350Z AUTO 34004KT 9999 -RA FEW018 SCT024 OVC048 02/02 Q1013 
EGGD 242320Z AUTO 30009KT 7000 -RASN BKN013 BKN021 OVC026 02/01 Q1013   
EGGD 242250Z AUTO VRB02KT 9999 SCT041/// //////CB 04/00 Q1012   
EGGD 242220Z AUTO 16004KT 9999 NCD 03/M00 Q1012 
EGGD 242150Z AUTO 23004KT 9999 NCD 04/M01 Q1012 
EGGD 242120Z AUTO 25003KT 9999 SCT045 04/M00 Q1012  
EGGD 242050Z AUTO 25003KT 9999 NCD 04/00 Q1012  
EGGD 242020Z AUTO 22002KT 9999 NCD 03/00 Q1012  
EGGD 241950Z AUTO 23003KT 9999 NCD 04/00 Q1012  
EGGD 241920Z AUTO 24004KT 9999 NCD 04/00 Q1012  
EGGD 241850Z AUTO 22004KT 9999 NCD 04/M00 Q1012 
EGGD 241820Z AUTO 24004KT 9999 NCD 05/M01 Q1012 
EGGD 241750Z AUTO 25003KT 9999 NCD 04/M01 Q1012 
EGGD 241720Z AUTO 28003KT 9999 NCD 04/M01 Q1012 
EGGD 241650Z AUTO 25002KT 9999 NCD 05/M00 Q1012 
EGGD 241620Z AUTO 27004KT 9999 NCD 04/00 Q1012  
EGGD 241550Z AUTO 27003KT 9999 NCD 05/00 Q1012  
EGGD 241520Z AUTO 26003KT 9999 NCD 06/01 Q1012  
EGGD 241450Z AUTO 28004KT 9999 NCD 06/01 Q1012  
EGGD 241420Z AUTO 29006KT 9999 NCD 07/01 Q1012  
EGGD 241350Z AUTO 29005KT 9999 NCD 06/02 Q1012  
EGGD 241320Z AUTO 30005KT 9999 NCD 07/02 Q1012  
EGGD 241250Z AUTO VRB03KT 9999 NCD 07/01 Q1012  
EGGD 241220Z AUTO VRB03KT 9999 NCD 07/02 Q1011  
EGGD 241150Z AUTO VRB03KT 9999 NCD 07/02 Q1011  
EGGD 241120Z AUTO VRB02KT 9999 NCD 07/03 Q1011  
EGGD 241050Z AUTO 21001KT 9999 NCD 05/04 Q1011  
EGGD 241020Z AUTO VRB01KT 9999 NCD 05/02 Q1011  
EGGD 240950Z AUTO 06002KT 9999 NCD 05/02 Q1011  
EGGD 240920Z AUTO 02003KT 9999 NCD 05/02 Q1010  
EGGD 240850Z AUTO VRB02KT 9999 NCD 05/03 Q1010  
EGGD 240820Z AUTO 32003KT 9999 NCD 04/04 Q1010  
EGGD 240750Z AUTO 28004KT 9999 NCD 04/04 Q1010  
EGGD 240720Z AUTO 26004KT 9999 NCD 04/04 Q1009  
EGGD 240650Z AUTO 29003KT 9999 NCD 05/04 Q1009  
EGGD 240620Z AUTO 30003KT 9999 NCD 05/05 Q1008  
EGGD 240550Z AUTO 31003KT 9999 NCD 05/05 Q1008  
EGGD 240520Z AUTO VRB03KT 9999 NCD 05/04 Q1008  
EGGD 240450Z AUTO 30002KT 9999 NCD 05/05 Q1007  
EGGD 240420Z AUTO 31003KT 9999 NCD 05/05 Q1007  
EGGD 240350Z AUTO 29005KT 9999 NCD 05/04 Q1007  
EGGD 240320Z AUTO 29006KT 9999 NCD 04/04 Q1006  
EGGD 240250Z AUTO 27004KT 9999 NCD 05/04 Q1006